Nearby METAR Reports

 

KKLS - Kelso Longveiw, Washington, USA
Distance from station: ESE 7mi, 11km
Updated: Wed, Nov-14-2018 3:56pm PST
Mist, Overcast
Mist, Overcast
 Wind from SSE
Wind: SSE 5 mph , 7 km/h
Temperature: 48°F , 9°C
Wind Chill: 46°F , 8°C
Dew Point: 45°F , 7°C
Humidity: 87%
Barometer: 30.41 inHg , 1029.8 hPa
Summary: Mist
Clouds: Overcast
Visibility: 6 miles , 10 km
Cloud details: Overcast 2000 ft
2018/11/14 23:56 KKLS 142356Z AUTO 15004KT 6SM BR OVC020 09/07 A3041 RMK AO2 SLP304 60006 T00940072 10094 20067 53005
KSPB - Scappoose, Oregon, USA
Distance from station: SSE 29mi, 46km
Updated: Wed, Nov-14-2018 4:01pm PST
Light rain, Mist, Overcast
Light rain, Mist, Overcast
 Wind from SW
Wind: SW 3 mph , 6 km/h
Temperature: 46°F , 8°C
Dew Point: 46°F , 8°C
Humidity: 100%
Barometer: 30.41 inHg , 1029.8 hPa
Summary: Light rain, Mist
Clouds: Overcast
Visibility: 3 miles , 5 km
Cloud details: Overcast 1900 ft
2018/11/15 00:01 KSPB 150001Z AUTO 23003KT 3SM -RA BR OVC019 08/08 A3041 RMK AO2 RAB2359 P0000 T00830078
 
KCLS - Chehalis Central, Washington, USA
Distance from station: N 36mi, 58km
Updated: Wed, Nov-14-2018 4:35pm PST
Clear
Clear
 Wind from S
Wind: S 7 mph , 11 km/h
Temperature: 50°F , 10°C
Wind Chill: 47°F , 8°C
Dew Point: 48°F , 9°C
Humidity: 94%
Barometer: 30.37 inHg , 1028.4 hPa
Clouds: Clear
Visibility: 8 miles , 13 km
2018/11/15 00:35 KCLS 150035Z AUTO 17006KT 8SM CLR 10/09 A3037 RMK AO2
KAST - Astoria, Oregon, USA
Distance from station: W 41mi, 66km
Updated: Wed, Nov-14-2018 3:55pm PST
Mist, Overcast
Mist, Overcast
 Wind from E
Wind: E 5 mph , 7 km/h
Temperature: 50°F , 10°C
Wind Chill: 48°F , 9°C
Dew Point: 48°F , 9°C
Humidity: 94%
Barometer: 30.37 inHg , 1028.4 hPa
Summary: Mist
Clouds: Overcast
Visibility: 5 miles , 8 km
Cloud details: Overcast 500 ft
2018/11/14 23:55 KAST 142355Z AUTO 09004KT 5SM BR OVC005 10/09 A3037 RMK AO2 VIS 2 1/2 RWY 08 RAB27E50 SLP284 P0000 60000 T01000094 10128 20083 53008
 
KVUO - Vancouver, Washington, USA
Distance from station: SSE 42mi, 68km
Updated: Wed, Nov-14-2018 4:33pm PST
Mist, Overcast
Mist, Overcast
 Wind from ESE
Wind: ESE 5 mph , 7 km/h
Temperature: 46°F , 8°C
Wind Chill: 44°F , 7°C
Dew Point: 45°F , 7°C
Humidity: 93%
Barometer: 30.41 inHg , 1029.8 hPa
Summary: Mist
Clouds: Overcast
Visibility: 3 miles , 5 km
Cloud details: Partly cloudy 500 ft
Mostly cloudy 1000 ft
Overcast 2500 ft
2018/11/15 00:33 KVUO 150033Z AUTO 11004KT 3SM BR SCT005 BKN010 OVC025 08/07 A3041 RMK AO2 T00830072
KHIO - Hillsboro/Portld, Oregon, USA
Distance from station: S 43mi, 69km
Updated: Wed, Nov-14-2018 4:27pm PST
Mist, Overcast
Mist, Overcast
 Wind from NE
Wind: NE 5 mph , 7 km/h
Temperature: 48°F , 9°C
Wind Chill: 46°F , 8°C
Dew Point: 45°F , 7°C
Humidity: 87%
Barometer: 30.40 inHg , 1029.5 hPa
Summary: Mist
Clouds: Overcast
Visibility: 2 miles , 3 km
Cloud details: Overcast 2100 ft
2018/11/15 00:27 KHIO 150027Z 05004KT 2SM BR OVC021 09/07 A3040 RMK AO2 T00890067
 
KPDX - Portland, Oregon, USA
Distance from station: SSE 44mi, 70km
Updated: Wed, Nov-14-2018 4:02pm PST
Mist, Overcast
Mist, Overcast
 Wind from SSE
Wind: SSE 5 mph , 7 km/h
Temperature: 46°F , 8°C
Wind Chill: 44°F , 7°C
Dew Point: 45°F , 7°C
Humidity: 93%
Barometer: 30.42 inHg , 1030.1 hPa
Summary: Mist
Clouds: Overcast
Visibility: 1 1/2 miles , 2.4 km
Cloud details: Few Clouds 700 ft
Mostly cloudy 1000 ft
Overcast 2700 ft
2018/11/15 00:02 KPDX 150002Z 15004KT 1 1/2SM BR FEW007 BKN010 OVC027 08/07 A3042 RMK AO2 SFC VIS 3 T00830072